Bigpoint, Mississippi
Current Conditions -  °F | °C
As of 5:53 AM on Sunday 23 Nov 2014 (Local Time) from KPQL Reporting Station
Light Rain Light Rain  
Wind Chill: 70°   Ceiling: 500
Heat Index: 70°   Visibility: 7mi
Dew Point: 69°   Wind: 12mph
Humidity: 97%   Direction: 130°SE
Pressure: 29.75"   Gusts: NA
Location:  30.3649°N, 88.5432°W
Report Text: KPQL 231153Z AUTO 13010KT 7SM -RA OVC005 21/21 A2975 RMK AO2 RAB46 SLP075 P0000 60000 T02110206 10211 20167 56017 TSNO
Loading
Personal Weather Stations






























Interactive Weather Map New forecast layout! Learn more

10-Day Weather Forecast

Advertisements
Track Severe Weather on mobile